Time;durP1;ratioP1;P1;durP2;ratioP2;P2;SDS_P1;SDS_P2;PMS_P1;PMS_P2;Temp;Humidity;BMP_temperature;BMP_pressure;BME280_temperature;BME280_humidity;BME280_pressure;Samples;Min_cycle;Max_cycle;Signal;HPM_P1;HPM_P2
2022/02/10 00:15:57;;;;;;;1999.90;999.90;;;;;;;3.55;57.81;101731.72;5013028;27;97516;-71
2022/02/10 00:18:36;;;;;;;1999.90;999.90;;;;;;;3.56;57.85;101739.72;5007087;27;102126;-71
2022/02/10 00:21:08;;;;;;;1999.90;999.90;;;;;;;3.58;57.72;101735.47;5007708;27;98897;-72
2022/02/10 00:24:02;;;;;;;1999.90;999.90;;;;;;;3.60;57.61;101723.31;5006218;27;99230;-70
2022/02/10 00:35:02;;;;;;;1999.90;999.90;;;;;;;3.66;57.71;101715.84;4968059;27;98310;-71
2022/02/10 00:37:47;;;;;;;1999.90;999.90;;;;;;;3.67;57.54;101706.22;5010945;27;98911;-72
2022/02/10 00:40:19;;;;;;;1999.90;999.90;;;;;;;3.67;57.50;101716.75;4998764;28;97742;-70
2022/02/10 00:42:48;;;;;;;1999.90;999.90;;;;;;;3.67;57.49;101715.03;4976512;28;102486;-71
2022/02/10 00:45:16;;;;;;;1999.90;999.90;;;;;;;3.67;57.77;101717.66;4989109;28;99674;-70
2022/02/10 00:47:53;;;;;;;1999.90;999.90;;;;;;;3.68;57.81;101722.09;4999476;27;98921;-70
2022/02/10 00:50:21;;;;;;;1999.90;999.90;;;;;;;3.67;57.47;101714.13;4991821;27;102036;-72
2022/02/10 00:52:51;;;;;;;1999.90;999.90;;;;;;;3.68;57.68;101715.91;4991241;27;98735;-71
2022/02/10 00:55:24;;;;;;;1999.90;999.90;;;;;;;3.68;57.62;101715.91;4994038;27;98718;-71
2022/02/10 00:57:53;;;;;;;1999.90;999.90;;;;;;;3.72;57.60;101715.31;5003086;27;98077;-72
2022/02/10 01:02:15;;;;;;;1999.90;999.90;;;;;;;3.75;57.63;101719.03;4985301;28;97007;-71
2022/02/10 01:31:28;;;;;;;1999.90;999.90;;;;;;;3.75;57.63;101691.84;4991965;28;98729;-71
2022/02/10 01:33:56;;;;;;;1999.90;999.90;;;;;;;3.73;57.70;101699.59;4987683;28;99119;-71
2022/02/10 01:36:24;;;;;;;1999.90;999.90;;;;;;;3.73;57.52;101704.00;4996272;27;99641;-71
2022/02/10 01:38:52;;;;;;;1999.90;999.90;;;;;;;3.73;57.62;101690.81;5001952;27;98943;-71
2022/02/10 01:41:55;;;;;;;1999.90;999.90;;;;;;;3.74;57.66;101679.47;4999769;27;97887;-71
2022/02/10 01:58:23;;;;;;;1999.90;999.90;;;;;;;3.84;57.48;101652.91;4990825;27;98087;-73
2022/02/10 02:03:38;;;;;;;1999.90;999.90;;;;;;;3.86;57.33;101651.28;4994769;28;97303;-71
2022/02/10 02:06:10;;;;;;;1999.90;999.90;;;;;;;3.86;57.33;101644.28;4989979;28;97595;-71
2022/02/10 02:08:40;;;;;;;1999.90;999.90;;;;;;;3.88;57.26;101640.03;5006659;27;98709;-70
2022/02/10 02:11:08;;;;;;;1999.90;999.90;;;;;;;3.89;57.18;101643.56;4991895;27;100486;-70
2022/02/10 02:13:36;;;;;;;1999.90;999.90;;;;;;;3.87;57.17;101639.94;5005984;27;96926;-71
2022/02/10 02:16:04;;;;;;;1999.90;999.90;;;;;;;3.86;57.29;101633.75;5008019;27;99048;-71
2022/02/10 02:18:32;;;;;;;1999.90;999.90;;;;;;;3.87;57.39;101627.69;4993396;28;98143;-69
2022/02/10 02:21:03;;;;;;;1999.90;999.90;;;;;;;3.88;57.27;101625.94;5013517;27;99019;-71
2022/02/10 02:23:32;;;;;;;1999.90;999.90;;;;;;;3.89;57.24;101625.16;5014666;27;97806;-70
2022/02/10 02:26:05;;;;;;;1999.90;999.90;;;;;;;3.87;57.30;101622.41;5011333;27;98449;-70
2022/02/10 02:28:34;;;;;;;1999.90;999.90;;;;;;;3.85;57.23;101617.88;4995577;28;100633;-70
2022/02/10 02:31:08;;;;;;;1999.90;999.90;;;;;;;3.82;57.26;101609.78;4994355;28;97705;-69
2022/02/10 02:34:10;;;;;;;1999.90;999.90;;;;;;;3.82;57.13;101605.44;4997795;28;97786;-71
2022/02/10 02:37:13;;;;;;;1999.90;999.90;;;;;;;3.81;57.26;101600.06;4997995;28;97322;-70
2022/02/10 03:04:59;;;;;;;1999.90;999.90;;;;;;;3.69;57.72;101573.91;5016753;27;98725;-71
2022/02/10 03:07:37;;;;;;;1999.90;999.90;;;;;;;3.71;57.37;101568.75;5014228;27;97573;-71
2022/02/10 03:10:25;;;;;;;1999.90;999.90;;;;;;;3.72;57.41;101560.00;5000054;28;97560;-71
2022/02/10 03:12:54;;;;;;;1999.90;999.90;;;;;;;3.74;57.45;101554.03;5002640;28;98739;-71
2022/02/10 03:15:28;;;;;;;1999.90;999.90;;;;;;;3.76;57.26;101546.22;5018417;27;98637;-71
2022/02/10 03:18:15;;;;;;;1999.90;999.90;;;;;;;3.77;57.38;101542.81;5016113;27;97233;-70
2022/02/10 03:21:00;;;;;;;1999.90;999.90;;;;;;;3.78;57.24;101549.88;4979932;28;97794;-71
2022/02/10 04:02:25;;;;;;;1999.90;999.90;;;;;;;3.78;57.13;101492.88;5007988;27;99327;-70
2022/02/10 04:05:31;;;;;;;1999.90;999.90;;;;;;;3.77;57.02;101490.16;4997231;28;97013;-70
2022/02/10 04:08:05;;;;;;;1999.90;999.90;;;;;;;3.76;57.02;101488.31;5013474;27;97719;-71
2022/02/10 04:11:02;;;;;;;1999.90;999.90;;;;;;;3.75;57.17;101492.66;5011750;27;97968;-70
2022/02/10 04:13:41;;;;;;;1999.90;999.90;;;;;;;3.75;57.05;101486.53;5015273;27;100825;-70
2022/02/10 04:16:14;;;;;;;1999.90;999.90;;;;;;;3.73;57.05;101482.91;5011911;27;97050;-71
2022/02/10 04:21:38;;;;;;;1999.90;999.90;;;;;;;3.71;57.30;101461.75;5011619;27;97995;-70
2022/02/10 04:24:23;;;;;;;1999.90;999.90;;;;;;;3.71;57.10;101460.84;5012308;27;97566;-70
2022/02/10 04:27:00;;;;;;;1999.90;999.90;;;;;;;3.70;56.88;101462.53;4994878;28;97756;-70
2022/02/10 04:29:47;;;;;;;1999.90;999.90;;;;;;;3.68;57.20;101456.28;4995601;27;102136;-71
2022/02/10 04:32:37;;;;;;;1999.90;999.90;;;;;;;3.66;57.01;101455.28;4976918;28;99185;-71
2022/02/10 04:44:06;;;;;;;1999.90;999.90;;;;;;;3.59;57.07;101432.03;4993465;27;97656;-72
2022/02/10 04:55:38;;;;;;;1999.90;999.90;;;;;;;3.52;57.19;101421.94;4992413;28;98815;-74
2022/02/10 04:58:24;;;;;;;1999.90;999.90;;;;;;;3.48;57.26;101414.69;4998525;28;97876;-74
2022/02/10 05:01:14;;;;;;;1999.90;999.90;;;;;;;3.44;57.49;101409.16;4996028;28;99361;-74
2022/02/10 05:12:48;;;;;;;1999.90;999.90;;;;;;;3.39;57.26;101400.06;4996139;28;98517;-73
2022/02/10 05:18:06;;;;;;;1999.90;999.90;;;;;;;3.35;57.47;101404.25;4995855;28;97483;-72
2022/02/10 05:21:08;;;;;;;1999.90;999.90;;;;;;;3.33;57.24;101405.88;4998949;28;98039;-73
2022/02/10 05:23:57;;;;;;;1999.90;999.90;;;;;;;3.28;57.46;101402.06;4999190;28;98747;-72
2022/02/10 05:32:22;;;;;;;1999.90;999.90;;;;;;;3.22;57.69;101396.47;5015097;27;100506;-74
2022/02/10 05:34:54;;;;;;;1999.90;999.90;;;;;;;3.21;57.69;101398.16;5031108;27;99591;-73
2022/02/10 05:37:26;;;;;;;1999.90;999.90;;;;;;;3.23;57.28;101385.09;4995883;28;97904;-73
2022/02/10 05:39:58;;;;;;;1999.90;999.90;;;;;;;3.22;57.24;101381.56;5011594;27;97609;-72
2022/02/10 05:42:56;;;;;;;1999.90;999.90;;;;;;;3.24;57.52;101379.94;4992651;28;99227;-72
2022/02/10 05:45:28;;;;;;;1999.90;999.90;;;;;;;3.24;57.14;101374.69;4997317;28;99208;-73
2022/02/10 05:48:17;;;;;;;1999.90;999.90;;;;;;;3.28;57.47;101372.25;4971180;28;99939;-73
2022/02/10 05:56:32;;;;;;;1999.90;999.90;;;;;;;3.30;57.35;101357.44;4960217;28;100773;-74
2022/02/10 05:59:25;;;;;;;1999.90;999.90;;;;;;;3.31;57.60;101359.28;4982759;28;97924;-74
2022/02/10 06:02:23;;;;;;;1999.90;999.90;;;;;;;3.32;57.11;101358.44;4990412;22;96755;-69
2022/02/10 06:50:28;;;;;;;1999.90;999.90;;;;;;;3.10;57.38;101328.25;4886142;28;97508;-69
2022/02/10 06:53:15;;;;;;;1999.90;999.90;;;;;;;3.08;57.41;101324.63;4975117;28;100175;-69
2022/02/10 06:56:15;;;;;;;1999.90;999.90;;;;;;;3.06;57.64;101333.22;4953488;28;98283;-69
2022/02/10 07:04:44;;;;;;;1999.90;999.90;;;;;;;2.99;57.55;101338.94;4901890;28;99126;-68
2022/02/10 07:10:27;;;;;;;1999.90;999.90;;;;;;;3.01;57.79;101332.97;4938632;28;98683;-69
2022/02/10 07:13:23;;;;;;;1999.90;999.90;;;;;;;3.03;57.55;101331.34;4953216;28;98798;-69
2022/02/10 07:16:22;;;;;;;1999.90;999.90;;;;;;;3.06;58.37;101331.50;4953566;28;99212;-69
2022/02/10 07:50:04;;;;;;;1999.90;999.90;;;;;;;3.13;58.18;101306.50;4954013;28;99977;-68
2022/02/10 07:52:52;;;;;;;1999.90;999.90;;;;;;;3.13;57.85;101309.13;4956173;28;97669;-70
2022/02/10 07:58:34;;;;;;;1999.90;999.90;;;;;;;3.14;58.10;101303.97;4960287;28;98707;-69
2022/02/10 08:26:17;;;;;;;1999.90;999.90;;;;;;;3.15;57.72;101296.97;4893149;28;97546;-70
2022/02/10 08:27:31;;;;;;;1999.90;999.90;;;;;;;3.19;57.66;101281.47;4951280;28;97045;-68
2022/02/10 08:52:51;;;;;;;1999.90;999.90;;;;;;;3.47;57.15;101262.94;4956421;28;97213;-69
2022/02/10 08:55:15;;;;;;;1999.90;999.90;;;;;;;3.52;57.25;101250.94;4952861;28;98847;-69
2022/02/10 08:58:05;;;;;;;1999.90;999.90;;;;;;;3.56;57.25;101252.94;4952728;28;100998;-69
2022/02/10 09:03:34;;;;;;;1999.90;999.90;;;;;;;3.68;57.11;101252.72;4957608;28;98268;-69
2022/02/10 09:06:09;;;;;;;1999.90;999.90;;;;;;;3.75;57.07;101249.66;4952578;28;99481;-69
2022/02/10 09:17:22;;;;;;;1999.90;999.90;;;;;;;3.95;56.71;101262.19;4951373;28;97658;-70
2022/02/10 10:01:23;;;;;;;1999.90;999.90;;;;;;;3.83;56.61;101249.25;4959433;28;99517;-69
2022/02/10 10:03:57;;;;;;;1999.90;999.90;;;;;;;3.83;56.68;101248.31;4959835;28;98584;-69
2022/02/10 10:06:47;;;;;;;1999.90;999.90;;;;;;;3.83;56.87;101245.69;4977152;28;96933;-70
2022/02/10 10:09:29;;;;;;;1999.90;999.90;;;;;;;3.84;56.92;101240.50;4958453;28;96857;-69
2022/02/10 10:14:46;;;;;;;1999.90;999.90;;;;;;;3.85;56.95;101237.06;4937355;28;101446;-69
2022/02/10 10:17:30;;;;;;;1999.90;999.90;;;;;;;3.88;56.94;101239.84;4956898;28;97587;-70
2022/02/10 10:20:10;;;;;;;1999.90;999.90;;;;;;;3.90;56.87;101239.94;4958651;28;98924;-70
2022/02/10 10:22:49;;;;;;;1999.90;999.90;;;;;;;3.92;56.70;101251.47;4958794;28;97695;-69
2022/02/10 10:25:48;;;;;;;1999.90;999.90;;;;;;;3.92;56.63;101248.81;4959784;28;97694;-68
2022/02/10 10:50:57;;;;;;;1999.90;999.90;;;;;;;4.01;55.53;101249.31;4956600;28;96941;-69
2022/02/10 10:53:33;;;;;;;1999.90;999.90;;;;;;;3.98;56.30;101239.56;4956074;28;97348;-70
2022/02/10 10:56:07;;;;;;;1999.90;999.90;;;;;;;3.93;56.13;101248.91;4975098;28;99261;-70
2022/02/10 10:58:39;;;;;;;1999.90;999.90;;;;;;;3.90;56.40;101246.13;4958705;28;100871;-69
2022/02/10 11:03:38;;;;;;;1999.90;999.90;;;;;;;3.89;56.44;101238.13;4959402;28;99540;-70
2022/02/10 11:05:12;;;;;;;1999.90;999.90;;;;;;;3.86;56.42;101232.72;4956898;28;97711;-70
2022/02/10 11:22:12;;;;;;;1999.90;999.90;;;;;;;3.85;56.20;101237.06;4953474;28;98896;-70
2022/02/10 11:39:23;;;;;;;1999.90;999.90;;;;;;;3.82;55.57;101212.31;4957343;28;98595;-69
2022/02/10 11:42:50;;;;;;;1999.90;999.90;;;;;;;3.84;55.74;101216.81;4952778;28;98193;-69
2022/02/10 12:01:15;;;;;;;1999.90;999.90;;;;;;;3.97;55.99;101224.56;4955793;28;97059;-70
2022/02/10 12:30:11;;;;;;;1999.90;999.90;;;;;;;3.72;56.78;101209.97;4961140;28;97688;-69
2022/02/10 14:09:35;;;;;;;1999.90;999.90;;;;;;;3.02;58.70;101289.19;4942340;28;99087;-70
2022/02/10 14:14:52;;;;;;;1999.90;999.90;;;;;;;3.00;58.27;101299.59;4963452;28;97774;-69
2022/02/10 14:17:30;;;;;;;1999.90;999.90;;;;;;;2.99;58.36;101291.63;4965940;28;97075;-69
2022/02/10 14:19:59;;;;;;;1999.90;999.90;;;;;;;3.00;58.14;101304.84;4962232;28;97710;-69
2022/02/10 14:22:50;;;;;;;1999.90;999.90;;;;;;;2.97;58.56;101299.41;4958525;28;99241;-71
2022/02/10 14:28:13;;;;;;;1999.90;999.90;;;;;;;2.95;58.67;101310.66;4954781;28;99369;-70
2022/02/10 14:30:41;;;;;;;1999.90;999.90;;;;;;;2.97;58.16;101311.66;4953117;28;99155;-70
2022/02/10 14:33:10;;;;;;;1999.90;999.90;;;;;;;2.97;58.22;101324.78;4953581;28;98796;-71
2022/02/10 14:35:50;;;;;;;1999.90;999.90;;;;;;;2.99;58.40;101315.28;4949148;28;98836;-68
2022/02/10 14:38:33;;;;;;;1999.90;999.90;;;;;;;2.97;58.08;101315.19;4956345;28;96879;-68
2022/02/10 14:41:31;;;;;;;1999.90;999.90;;;;;;;3.00;58.36;101318.00;4955309;28;98381;-68
2022/02/10 15:12:45;;;;;;;1999.90;999.90;;;;;;;2.89;58.09;101326.94;4956973;28;98534;-69
2022/02/10 15:18:17;;;;;;;1999.90;999.90;;;;;;;2.92;57.89;101336.75;4957149;28;99846;-71
2022/02/10 15:21:20;;;;;;;1999.90;999.90;;;;;;;2.87;57.64;101325.06;4957002;28;97834;-72
2022/02/10 15:30:44;;;;;;;1999.90;999.90;;;;;;;2.77;57.67;101335.81;4957044;28;99075;-69
2022/02/10 15:49:55;;;;;;;1999.90;999.90;;;;;;;2.62;57.24;101363.81;4936820;28;97973;-70
2022/02/10 15:55:46;;;;;;;1999.90;999.90;;;;;;;2.48;57.15;101365.56;4954067;28;98211;-70
2022/02/10 16:13:05;;;;;;;1999.90;999.90;;;;;;;2.04;58.12;101352.19;4975950;28;97605;-71
2022/02/10 16:16:02;;;;;;;1999.90;999.90;;;;;;;2.01;57.74;101351.09;4960640;28;97792;-68
2022/02/10 16:18:16;;;;;;;1999.90;999.90;;;;;;;2.01;57.62;101357.25;4961098;28;99244;-74
2022/02/10 16:20:50;;;;;;;1999.90;999.90;;;;;;;1.98;57.96;101369.28;4963128;28;97371;-72
2022/02/10 16:23:20;;;;;;;1999.90;999.90;;;;;;;1.90;57.96;101379.28;4960814;28;97820;-70
2022/02/10 16:25:51;;;;;;;1999.90;999.90;;;;;;;1.89;57.86;101381.81;4960979;28;98606;-72
2022/02/10 16:28:29;;;;;;;1999.90;999.90;;;;;;;1.86;58.29;101394.72;4978350;28;99470;-72
2022/02/10 16:30:59;;;;;;;1999.90;999.90;;;;;;;1.84;57.78;101394.63;4946545;28;99076;-72
2022/02/10 16:33:33;;;;;;;1999.90;999.90;;;;;;;1.79;58.54;101401.28;4961161;28;97863;-72
2022/02/10 16:36:07;;;;;;;1999.90;999.90;;;;;;;1.77;58.62;101399.34;4963056;28;100101;-69
2022/02/10 16:38:39;;;;;;;1999.90;999.90;;;;;;;1.75;58.37;101403.59;4959030;28;99641;-71
2022/02/10 16:41:12;;;;;;;1999.90;999.90;;;;;;;1.73;58.31;101408.75;4961241;28;98555;-72
2022/02/10 16:43:41;;;;;;;1999.90;999.90;;;;;;;1.72;58.76;101409.56;4961836;28;96941;-70
2022/02/10 16:46:17;;;;;;;1999.90;999.90;;;;;;;1.71;58.62;101412.06;4960001;28;97511;-72
2022/02/10 16:48:50;;;;;;;1999.90;999.90;;;;;;;1.68;59.40;101409.25;4962309;28;98557;-71
2022/02/10 16:51:25;;;;;;;1999.90;999.90;;;;;;;1.65;58.91;101406.44;4961948;28;96999;-72
2022/02/10 16:54:04;;;;;;;1999.90;999.90;;;;;;;1.63;59.03;101398.47;4962709;28;97721;-72
2022/02/10 16:56:49;;;;;;;1999.90;999.90;;;;;;;1.61;58.83;101402.69;4961389;28;97692;-68
2022/02/10 16:59:35;;;;;;;1999.90;999.90;;;;;;;1.56;58.81;101406.69;4959047;28;100503;-72
2022/02/10 17:02:30;;;;;;;1999.90;999.90;;;;;;;1.89;57.84;101402.81;4939864;28;97991;-69
2022/02/10 17:05:29;;;;;;;1999.90;999.90;;;;;;;1.69;59.01;101413.69;4943322;28;97759;-70
2022/02/10 17:19:34;;;;;;;1999.90;999.90;;;;;;;1.47;59.24;101427.06;4959914;28;99416;-72
2022/02/10 17:27:39;;;;;;;1999.90;999.90;;;;;;;1.40;58.76;101430.09;4962790;28;96786;-71
2022/02/10 17:30:59;;;;;;;1999.90;999.90;;;;;;;1.39;58.84;101433.53;4961786;28;97088;-73
2022/02/10 17:33:32;;;;;;;1999.90;999.90;;;;;;;1.35;59.01;101433.19;4960072;28;97738;-70
2022/02/10 17:36:09;;;;;;;1999.90;999.90;;;;;;;1.33;59.27;101443.59;4962557;28;97090;-71
2022/02/10 17:44:20;;;;;;;1999.90;999.90;;;;;;;1.24;58.87;101437.72;4975717;28;100718;-72
2022/02/10 17:52:32;;;;;;;1999.90;999.90;;;;;;;1.22;59.30;101449.81;4963170;28;99644;-68
2022/02/10 17:55:01;;;;;;;1999.90;999.90;;;;;;;1.23;58.93;101455.97;4945979;28;98005;-68
2022/02/10 17:57:28;;;;;;;1999.90;999.90;;;;;;;1.21;58.97;101453.25;4963250;28;97133;-69
2022/02/10 17:59:56;;;;;;;1999.90;999.90;;;;;;;1.21;59.37;101459.38;4963686;28;97090;-68
2022/02/10 18:02:24;;;;;;;1999.90;999.90;;;;;;;1.22;59.56;101465.53;4963717;28;97750;-68
2022/02/10 18:04:51;;;;;;;1999.90;999.90;;;;;;;1.19;58.83;101466.25;4960713;28;97986;-67
2022/02/10 18:07:19;;;;;;;1999.90;999.90;;;;;;;1.17;59.18;101452.13;4962161;28;97039;-67
2022/02/10 18:15:34;;;;;;;1999.90;999.90;;;;;;;1.22;59.32;101452.41;5071675;27;97900;-68
2022/02/10 18:18:11;;;;;;;1999.90;999.90;;;;;;;1.19;59.11;101460.09;5095186;27;97735;-69
2022/02/10 18:20:47;;;;;;;1999.90;999.90;;;;;;;1.14;59.05;101464.09;5068710;27;99220;-68
2022/02/10 18:23:22;;;;;;;1999.90;999.90;;;;;;;1.46;58.86;101471.53;5067975;27;98347;-70
2022/02/10 18:26:00;;;;;;;1999.90;999.90;;;;;;;1.25;59.08;101465.75;5068612;27;97873;-69
2022/02/10 18:28:56;;;;;;;1999.90;999.90;;;;;;;1.20;59.58;101461.88;5070112;27;96814;-70
2022/02/10 18:34:55;;;;;;;1999.90;999.90;;;;;;;1.17;59.24;101466.94;5070359;27;100647;-71
2022/02/10 19:07:39;;;;;;;1999.90;999.90;;;;;;;1.00;60.22;101477.94;5046767;27;100988;-72
2022/02/10 19:10:10;;;;;;;1999.90;999.90;;;;;;;1.31;59.20;101471.41;5056985;27;97585;-72
2022/02/10 19:12:44;;;;;;;1999.90;999.90;;;;;;;1.12;59.72;101468.34;5070452;27;97892;-70
2022/02/10 19:15:18;;;;;;;1999.90;999.90;;;;;;;1.40;58.67;101477.28;5065497;27;97661;-69
2022/02/10 19:17:47;;;;;;;1999.90;999.90;;;;;;;1.18;59.85;101482.75;5066790;27;100082;-71
2022/02/10 19:20:19;;;;;;;1999.90;999.90;;;;;;;1.08;59.41;101471.53;5067487;27;96930;-71
2022/02/10 19:22:47;;;;;;;1999.90;999.90;;;;;;;1.01;60.45;101485.91;5067708;27;100109;-70
2022/02/10 19:25:15;;;;;;;1999.90;999.90;;;;;;;1.00;60.31;101477.94;5062169;27;99285;-72
2022/02/10 19:27:44;;;;;;;1999.90;999.90;;;;;;;0.97;59.85;101485.59;5035344;27;99135;-70
2022/02/10 19:30:14;;;;;;;1999.90;999.90;;;;;;;0.95;60.08;101481.94;5052144;27;97744;-69
2022/02/10 19:32:57;;;;;;;1999.90;999.90;;;;;;;0.92;60.37;101480.00;5049967;27;97669;-71
2022/02/10 19:35:29;;;;;;;1999.90;999.90;;;;;;;0.88;60.31;101478.00;5061437;27;97693;-71
2022/02/10 19:38:00;;;;;;;1999.90;999.90;;;;;;;0.88;60.10;101475.38;5052320;27;99197;-70
2022/02/10 19:40:33;;;;;;;1999.90;999.90;;;;;;;0.84;60.50;101475.03;5052252;27;97041;-72
2022/02/10 19:43:01;;;;;;;1999.90;999.90;;;;;;;0.84;60.05;101477.66;5052794;27;97213;-72
2022/02/10 19:45:29;;;;;;;1999.90;999.90;;;;;;;0.84;60.57;101473.34;5037019;27;99539;-71
2022/02/10 19:47:56;;;;;;;1999.90;999.90;;;;;;;0.83;60.05;101479.34;5051373;27;99179;-70
2022/02/10 19:50:27;;;;;;;1999.90;999.90;;;;;;;0.83;59.94;101481.97;5040021;27;97698;-68
2022/02/10 19:53:00;;;;;;;1999.90;999.90;;;;;;;0.84;60.01;101475.03;5054308;27;97815;-72
2022/02/10 19:55:29;;;;;;;1999.90;999.90;;;;;;;0.82;60.05;101476.63;5069735;27;99089;-71
2022/02/10 19:58:03;;;;;;;1999.90;999.90;;;;;;;0.83;60.34;101486.34;5057226;27;99809;-71
2022/02/10 20:00:38;;;;;;;1999.90;999.90;;;;;;;0.85;59.99;101487.34;5052883;27;97155;-71
2022/02/10 20:03:12;;;;;;;1999.90;999.90;;;;;;;0.86;60.07;101486.53;5054753;27;96955;-70
2022/02/10 20:05:44;;;;;;;1999.90;999.90;;;;;;;0.87;60.17;101490.97;5058592;27;97921;-70
2022/02/10 20:08:15;;;;;;;1999.90;999.90;;;;;;;0.87;60.34;101486.66;5077926;27;98048;-70
2022/02/10 20:10:43;;;;;;;1999.90;999.90;;;;;;;0.89;60.03;101486.75;5051863;27;97122;-69
2022/02/10 20:13:16;;;;;;;1999.90;999.90;;;;;;;0.89;60.03;101492.00;5053391;27;97510;-70
2022/02/10 20:15:44;;;;;;;1999.90;999.90;;;;;;;0.89;59.79;101485.03;5059031;27;99495;-69
2022/02/10 20:18:14;;;;;;;1999.90;999.90;;;;;;;0.90;59.85;101488.59;5075511;27;97452;-70
2022/02/10 20:20:45;;;;;;;1999.90;999.90;;;;;;;0.90;59.73;101475.50;5059290;27;97976;-69
2022/02/10 20:23:15;;;;;;;1999.90;999.90;;;;;;;0.86;59.72;101474.38;5043258;27;96805;-69
2022/02/10 20:26:04;;;;;;;1999.90;999.90;;;;;;;0.84;60.20;101468.09;5042418;27;98933;-70
2022/02/10 20:28:32;;;;;;;1999.90;999.90;;;;;;;0.84;59.55;101470.72;5053816;27;98914;-70
2022/02/10 20:31:01;;;;;;;1999.90;999.90;;;;;;;0.82;59.25;101471.41;5062638;27;99710;-69
2022/02/10 20:33:30;;;;;;;1999.90;999.90;;;;;;;0.78;59.52;101464.13;5057566;27;96998;-70
2022/02/10 20:36:01;;;;;;;1999.90;999.90;;;;;;;0.77;59.64;101473.72;5045551;27;98020;-69
2022/02/10 20:38:33;;;;;;;1999.90;999.90;;;;;;;0.77;59.65;101480.66;5059531;27;98053;-71
2022/02/10 20:41:04;;;;;;;1999.90;999.90;;;;;;;0.76;59.67;101469.25;5044295;27;96907;-69
2022/02/10 20:43:33;;;;;;;1999.90;999.90;;;;;;;0.77;59.74;101470.16;5062222;27;96712;-69
2022/02/10 20:46:04;;;;;;;1999.90;999.90;;;;;;;1.06;58.81;101465.28;5061673;27;97444;-68
2022/02/10 20:48:34;;;;;;;1999.90;999.90;;;;;;;0.85;59.77;101466.41;5059037;27;99301;-68
2022/02/10 20:51:08;;;;;;;1999.90;999.90;;;;;;;0.81;59.28;101459.13;5078596;27;97688;-69
2022/02/10 20:53:44;;;;;;;1999.90;999.90;;;;;;;0.79;59.46;101471.19;5039695;27;97423;-70
2022/02/10 20:56:21;;;;;;;1999.90;999.90;;;;;;;0.79;59.29;101471.19;5061674;27;98976;-70
2022/02/10 20:58:57;;;;;;;1999.90;999.90;;;;;;;0.76;60.26;101476.19;5060766;27;98008;-69
2022/02/10 21:01:25;;;;;;;1999.90;999.90;;;;;;;0.73;59.57;101462.91;5057469;27;97913;-69
2022/02/10 21:03:54;;;;;;;1999.90;999.90;;;;;;;0.70;59.57;101463.59;5043519;27;96839;-69
2022/02/10 21:06:42;;;;;;;1999.90;999.90;;;;;;;0.68;60.28;101459.03;5054909;27;98204;-69
2022/02/10 21:09:18;;;;;;;1999.90;999.90;;;;;;;0.65;60.10;101472.81;5046178;27;97771;-69
2022/02/10 21:11:45;;;;;;;1999.90;999.90;;;;;;;0.62;59.78;101466.44;5048909;27;96812;-69
2022/02/10 21:14:18;;;;;;;1999.90;999.90;;;;;;;0.59;60.26;101466.25;5048086;27;98294;-69
2022/02/10 21:16:46;;;;;;;1999.90;999.90;;;;;;;0.56;60.15;101474.78;5030230;27;100205;-69
2022/02/10 21:19:17;;;;;;;1999.90;999.90;;;;;;;0.56;60.19;101476.50;5052528;27;97697;-69
2022/02/10 21:21:45;;;;;;;1999.90;999.90;;;;;;;0.56;60.42;101473.91;5048498;27;97572;-70
2022/02/10 21:24:21;;;;;;;1999.90;999.90;;;;;;;0.53;60.30;101474.56;5053272;27;99269;-71
2022/02/10 21:27:06;;;;;;;1999.90;999.90;;;;;;;0.51;59.89;101468.31;5033685;27;102173;-70
2022/02/10 21:29:33;;;;;;;1999.90;999.90;;;;;;;0.52;60.29;101461.38;5051776;27;98406;-71
2022/02/10 21:32:01;;;;;;;1999.90;999.90;;;;;;;0.52;60.26;101471.84;5051197;27;97850;-70
2022/02/10 21:34:34;;;;;;;1999.90;999.90;;;;;;;0.52;60.34;101462.25;5051725;27;96855;-70
2022/02/10 21:37:05;;;;;;;1999.90;999.90;;;;;;;0.51;60.35;101462.16;5048239;27;99509;-70
2022/02/10 21:39:47;;;;;;;1999.90;999.90;;;;;;;0.51;60.14;101464.78;5049928;27;98302;-71
2022/02/10 21:43:23;;;;;;;1999.90;999.90;;;;;;;0.51;59.98;101452.59;5052627;27;98018;-70
2022/02/10 21:48:23;;;;;;;1999.90;999.90;;;;;;;0.46;60.21;101474.94;5011248;27;98733;-72
2022/02/10 21:54:30;;;;;;;1999.90;999.90;;;;;;;0.43;60.28;101458.09;5058001;27;97232;-68
2022/02/10 22:10:59;;;;;;;1999.90;999.90;;;;;;;0.38;60.05;101451.59;5063779;27;101290;-71
2022/02/10 22:16:48;;;;;;;1999.90;999.90;;;;;;;0.41;60.13;101459.69;5068832;27;96766;-68
2022/02/10 22:19:19;;;;;;;1999.90;999.90;;;;;;;0.40;59.95;101458.78;5068566;27;101154;-70
2022/02/10 22:21:50;;;;;;;1999.90;999.90;;;;;;;0.42;60.02;101456.25;5068854;27;99223;-68
2022/02/10 22:24:19;;;;;;;1999.90;999.90;;;;;;;0.43;59.67;101463.34;5061058;27;97186;-72
2022/02/10 22:26:48;;;;;;;1999.90;999.90;;;;;;;0.44;59.89;101467.75;5055783;27;97363;-70
2022/02/10 22:29:20;;;;;;;1999.90;999.90;;;;;;;0.42;59.45;101464.09;5066620;27;99917;-71
2022/02/10 22:32:01;;;;;;;1999.90;999.90;;;;;;;0.43;59.42;101460.72;5067140;27;97985;-71
2022/02/10 22:34:36;;;;;;;1999.90;999.90;;;;;;;0.39;59.86;101459.59;5062276;27;97429;-70
2022/02/10 22:37:06;;;;;;;1999.90;999.90;;;;;;;0.37;59.61;101466.41;5070287;27;97405;-71
2022/02/10 22:39:38;;;;;;;1999.90;999.90;;;;;;;0.36;59.43;101461.06;5053756;27;100530;-71
2022/02/10 22:42:07;;;;;;;1999.90;999.90;;;;;;;0.35;59.32;101460.16;5066783;27;99217;-71
2022/02/10 22:44:35;;;;;;;1999.90;999.90;;;;;;;0.36;59.67;101456.72;5071998;27;97866;-70
2022/02/10 22:47:04;;;;;;;1999.90;999.90;;;;;;;0.38;59.45;101454.22;5068434;27;97173;-71
2022/02/10 22:49:33;;;;;;;1999.90;999.90;;;;;;;0.40;59.25;101457.84;5083292;27;100461;-71
2022/02/10 22:52:01;;;;;;;1999.90;999.90;;;;;;;0.38;59.59;101455.13;5068616;27;98068;-72
2022/02/10 22:54:29;;;;;;;1999.90;999.90;;;;;;;0.34;59.58;101462.66;5073122;27;98157;-71
2022/02/10 22:56:57;;;;;;;1999.90;999.90;;;;;;;0.32;59.20;101461.66;5070527;27;96817;-70
2022/02/10 22:59:25;;;;;;;1999.90;999.90;;;;;;;0.30;59.53;101456.31;5067647;27;99376;-71
2022/02/10 23:01:55;;;;;;;1999.90;999.90;;;;;;;0.31;59.30;101462.41;5070237;27;100486;-72
2022/02/10 23:04:23;;;;;;;1999.90;999.90;;;;;;;0.28;59.38;101457.91;5066685;27;99189;-71
2022/02/10 23:06:56;;;;;;;1999.90;999.90;;;;;;;0.30;59.41;101463.22;5070181;27;97104;-71
2022/02/10 23:09:31;;;;;;;1999.90;999.90;;;;;;;0.28;59.52;101464.81;5070159;27;97848;-71
2022/02/10 23:12:00;;;;;;;1999.90;999.90;;;;;;;0.24;59.32;101468.94;5063850;27;100299;-71
2022/02/10 23:14:28;;;;;;;1999.90;999.90;;;;;;;0.23;59.45;101476.63;5051737;27;97255;-71
2022/02/10 23:16:56;;;;;;;1999.90;999.90;;;;;;;0.19;59.59;101481.63;5060583;27;97044;-70
2022/02/10 23:19:26;;;;;;;1999.90;999.90;;;;;;;0.19;59.84;101479.00;5058709;27;99030;-71
2022/02/10 23:21:55;;;;;;;1999.90;999.90;;;;;;;0.15;59.94;101481.31;5051235;27;97926;-69
2022/02/10 23:24:23;;;;;;;1999.90;999.90;;;;;;;0.13;59.81;101478.59;5055545;27;96862;-70
2022/02/10 23:26:51;;;;;;;1999.90;999.90;;;;;;;0.13;59.71;101472.44;5053959;27;97328;-70
2022/02/10 23:29:18;;;;;;;1999.90;999.90;;;;;;;0.09;59.83;101473.91;5058198;27;97651;-72
2022/02/10 23:31:46;;;;;;;1999.90;999.90;;;;;;;0.10;59.70;101462.63;5054607;27;97858;-70
2022/02/10 23:34:14;;;;;;;1999.90;999.90;;;;;;;0.13;59.57;101467.19;5058638;27;98062;-69
2022/02/10 23:36:47;;;;;;;1999.90;999.90;;;;;;;0.12;59.86;101474.13;5057015;27;96887;-68
2022/02/10 23:39:21;;;;;;;1999.90;999.90;;;;;;;0.09;60.02;101475.63;5054601;27;99367;-71